Lafayette, Virginia
Current Conditions -  °F | °C
As of 2:15 PM on Sunday 21 Dec 2014 (Local Time) from KBCB Reporting Station
Overcast Overcast  
Wind Chill: 43°   Ceiling: 3200
Heat Index: 43°   Visibility: 10mi
Dew Point: 30°   Wind: 0mph
Humidity: 60%   Direction: NA
Pressure: 30.2"   Gusts: NA
Location:  37.2234°N, 80.2676°W
Report Text: KBCB 211915Z AUTO 00000KT 10SM OVC032 06/M01 A3020 RMK AO2 T00601012
Loading
Personal Weather Stations






























Interactive Weather Map New forecast layout! Learn more

10-Day Weather Forecast

Advertisements
Track Severe Weather on mobile